Ana Sayfa
METAR-TAF:

METAR-TAF

Havaalanları :

Riyad, Suudi Arabistan

Enlem: 24-43N, Boylam: 046-44E, yükseklik: 635 m

METAR: eksik

Saat: 21:56 (18:56 UTC)

Tahmin

Rapor saat 11:00 UTC de 7 saat ve 56 dakika önce yapıldı.
Ayın 18'si saat 12 UTC'den ayın 19'si saat 18 UTC'ye kadar geçerli Tahmin
Rüzgar doğudan 6 kt ve 16 kt'a kadar ani rüzgarlar
Görüş mesafesi: 7000 m
4000 ft yükseklikte az bulutlu
10000 ft yükseklikte parçalı bulutlu
Geçici
ayın 18'si saat 12 UTC'den ayın 18'si saat 18 UTC'ye kadar
Görüş mesafesi: 3500 m
4000 ft yükseklikte parçalı bulutlu
yaygın toz, Savrulan toz
Dönüşüyor
ayın 18'si saat 20 UTC'den ayın 18'si saat 22 UTC'ye kadar
Rüzgar güney/güneydoğudan 6 kt

TAF: OERY 181100Z 1812/1918 08006G16KT 7000 FEW040 SCT100 TEMPO 1812/1818 3500 DU BLDU SCT040 BECMG 1820/1822 16006KT

4.000'den fazla havaalanı için hava durumu gözlemleri ve tahminleri (METAR ve TAF raporları).

Kullanılabilir istasyonlar harita üzerinde sarı ve kırmızı noktalarla gösterilir.

İstasyonun adını görmek için fareyi noktanın üzerinde gezdirin.

Sonrasında hava gözlem ve tahminlerini görmek için tıklayın.

Haritayı değiştirmek için: yaklaştırmak için siyah artı işaretli yeşil düğmeye ve uzaklaştırmak için de eksi işaretli düğmeye hızla tıklayın; bitişik haritalar için yeşil okları kullanın.


METAR-TAF: